createdAt,value
2022-11-16T00:00:11.461Z,7.28
2022-11-16T00:03:05.857Z,7.16
2022-11-16T00:05:38.083Z,7.14
2022-11-16T00:08:10.154Z,7.22
2022-11-16T00:10:42.242Z,7.15
2022-11-16T00:13:14.576Z,7.19
2022-11-16T00:15:54.568Z,7.21
2022-11-16T00:18:26.954Z,7.32
2022-11-16T00:20:59.350Z,7.29
2022-11-16T00:23:31.872Z,7.26
2022-11-16T00:26:08.143Z,7.25
2022-11-16T00:28:40.698Z,7.24
2022-11-16T00:31:13.752Z,7.27
2022-11-16T00:33:45.896Z,7.28
2022-11-16T00:36:18.206Z,7.32
2022-11-16T00:38:52.975Z,7.35
2022-11-16T00:41:25.422Z,7.36
2022-11-16T00:43:56.180Z,7.33
2022-11-16T00:46:28.270Z,7.37
2022-11-16T00:49:00.529Z,7.31
2022-11-16T00:51:34.046Z,7.29
2022-11-16T00:54:08.107Z,7.32
2022-11-16T00:56:41.477Z,7.25
2022-11-16T00:59:13.793Z,7.20
2022-11-16T01:01:47.452Z,7.20
2022-11-16T01:04:19.789Z,7.24
2022-11-16T01:06:51.974Z,7.35
2022-11-16T01:09:24.291Z,7.46
2022-11-16T01:12:12.784Z,7.44
2022-11-16T01:14:47.431Z,7.44
2022-11-16T01:17:19.590Z,7.42
2022-11-16T01:19:52.241Z,7.39
2022-11-16T01:22:24.451Z,7.41
2022-11-16T01:24:56.808Z,7.32
2022-11-16T01:27:29.177Z,7.35
2022-11-16T01:30:03.224Z,7.44
2022-11-16T01:32:35.811Z,7.51
2022-11-16T01:35:07.903Z,7.51
2022-11-16T01:37:40.219Z,7.46
2022-11-16T01:40:14.222Z,7.41
2022-11-16T01:42:48.169Z,7.50
2022-11-16T01:45:25.228Z,7.41
2022-11-16T01:48:00.419Z,7.39
2022-11-16T01:50:37.733Z,7.42
2022-11-16T01:53:13.495Z,7.56
2022-11-16T01:55:57.630Z,7.56
2022-11-16T01:58:48.203Z,7.56
2022-11-16T02:01:28.131Z,7.47
2022-11-16T02:04:01.076Z,7.31
2022-11-16T02:06:50.540Z,7.27
2022-11-16T02:09:57.384Z,7.29
2022-11-16T02:12:53.376Z,7.35
2022-11-16T02:15:33.813Z,7.38
2022-11-16T02:18:33.866Z,7.35
2022-11-16T02:21:21.686Z,7.31
2022-11-16T02:24:32.619Z,7.26
2022-11-16T02:27:34.416Z,7.22
2022-11-16T02:30:08.276Z,7.27
2022-11-16T02:32:51.699Z,7.21
2022-11-16T02:35:30.387Z,7.20
2022-11-16T02:38:10.175Z,7.14
2022-11-16T02:40:46.428Z,7.24
2022-11-16T02:43:26.875Z,7.24
2022-11-16T02:46:04.225Z,7.22
2022-11-16T02:48:41.460Z,7.27
2022-11-16T02:51:14.621Z,7.29
2022-11-16T02:54:04.000Z,7.18
2022-11-16T02:56:49.584Z,7.14
2022-11-16T02:59:25.335Z,7.24
2022-11-16T03:02:12.281Z,7.04
2022-11-16T03:04:48.435Z,7.06
2022-11-16T03:07:24.711Z,7.20
2022-11-16T03:09:58.998Z,7.26
2022-11-16T03:12:36.775Z,7.27
2022-11-16T03:15:13.271Z,7.15
2022-11-16T03:17:47.538Z,7.03
2022-11-16T03:20:26.891Z,6.88
2022-11-16T03:23:02.472Z,6.82
2022-11-16T03:25:41.107Z,6.94
2022-11-16T03:28:20.333Z,7.04
2022-11-16T03:30:55.480Z,7.04
2022-11-16T03:33:31.618Z,7.09
2022-11-16T03:36:08.648Z,7.13
2022-11-16T03:38:43.115Z,7.04
2022-11-16T03:41:16.363Z,7.05
2022-11-16T03:43:48.084Z,7.09
2022-11-16T03:46:21.719Z,7.10
2022-11-16T03:48:59.426Z,7.16
2022-11-16T03:51:33.521Z,7.14
2022-11-16T03:54:06.054Z,7.17
2022-11-16T03:56:38.523Z,7.16
2022-11-16T03:59:10.566Z,7.04
2022-11-16T04:01:44.861Z,6.98
2022-11-16T04:04:31.684Z,6.97
2022-11-16T04:07:20.976Z,6.99
2022-11-16T04:10:10.233Z,7.01
2022-11-16T04:13:03.368Z,7.19
2022-11-16T04:16:04.485Z,7.27
2022-11-16T04:18:54.200Z,7.32
2022-11-16T04:21:49.456Z,7.24
2022-11-16T04:24:24.629Z,7.06
2022-11-16T04:27:17.845Z,7.12
2022-11-16T04:29:48.339Z,7.02
2022-11-16T04:32:38.163Z,7.03
2022-11-16T04:35:27.508Z,7.05
2022-11-16T04:38:00.919Z,7.14
2022-11-16T04:40:35.787Z,7.03
2022-11-16T04:43:07.886Z,7.07
2022-11-16T04:46:00.649Z,7.09
2022-11-16T04:48:38.518Z,7.24
2022-11-16T04:51:10.374Z,7.21
2022-11-16T04:53:43.225Z,7.25
2022-11-16T04:56:21.444Z,7.22
2022-11-16T04:58:53.670Z,7.17
2022-11-16T05:01:39.885Z,7.16
2022-11-16T05:04:12.713Z,7.24
2022-11-16T05:06:44.412Z,7.21
2022-11-16T05:09:16.420Z,7.16
2022-11-16T05:11:48.092Z,7.26
2022-11-16T05:14:20.901Z,7.23
2022-11-16T05:16:53.270Z,7.18
2022-11-16T05:19:50.864Z,7.15
2022-11-16T05:22:23.152Z,7.18
2022-11-16T05:24:55.315Z,7.21
2022-11-16T05:27:30.098Z,7.02
2022-11-16T05:30:02.670Z,7.02
2022-11-16T05:32:35.128Z,7.04
2022-11-16T05:35:07.566Z,7.09
2022-11-16T05:37:39.675Z,7.14
2022-11-16T05:40:13.570Z,7.18
2022-11-16T05:42:55.819Z,7.06
2022-11-16T05:45:27.105Z,7.04
2022-11-16T05:47:58.766Z,7.01
2022-11-16T05:50:31.460Z,7.14
2022-11-16T05:53:13.975Z,7.15
2022-11-16T05:55:46.163Z,7.22
2022-11-16T05:58:17.941Z,7.22
2022-11-16T06:00:51.097Z,7.26
2022-11-16T06:03:23.757Z,7.20
2022-11-16T06:05:57.558Z,7.27
2022-11-16T06:08:31.777Z,7.28
2022-11-16T06:11:07.095Z,7.32
2022-11-16T06:13:40.097Z,7.35
2022-11-16T06:16:12.941Z,7.25
2022-11-16T06:18:46.660Z,7.24
2022-11-16T06:21:20.276Z,7.25
2022-11-16T06:23:52.198Z,7.16
2022-11-16T06:26:23.960Z,7.27
2022-11-16T06:28:56.124Z,7.30
2022-11-16T06:31:28.309Z,7.30
2022-11-16T06:34:00.910Z,7.18
2022-11-16T06:36:33.270Z,7.26
2022-11-16T06:39:05.392Z,7.28
2022-11-16T06:41:41.589Z,7.30
2022-11-16T06:44:14.277Z,7.28
2022-11-16T06:46:54.039Z,7.29
2022-11-16T06:49:25.829Z,7.33
2022-11-16T06:51:58.885Z,7.42
2022-11-16T06:54:30.896Z,7.38
2022-11-16T06:57:02.635Z,7.29
2022-11-16T06:59:34.799Z,7.34
2022-11-16T07:02:06.666Z,7.32
2022-11-16T07:04:40.401Z,7.33
2022-11-16T07:07:12.592Z,7.41
2022-11-16T07:09:44.571Z,7.44
2022-11-16T07:12:16.509Z,7.35
2022-11-16T07:14:48.720Z,7.43
2022-11-16T07:17:23.440Z,7.36
2022-11-16T07:19:56.846Z,7.34
2022-11-16T07:22:28.650Z,7.42
2022-11-16T07:25:00.398Z,7.51
2022-11-16T07:27:32.619Z,7.43
2022-11-16T07:30:05.632Z,7.33
2022-11-16T07:32:50.005Z,7.50
2022-11-16T07:35:31.140Z,7.50
2022-11-16T07:38:03.177Z,7.34
2022-11-16T07:40:35.594Z,7.43
2022-11-16T07:43:07.298Z,7.51
2022-11-16T07:46:30.200Z,7.44
2022-11-16T07:48:55.342Z,7.41
2022-11-16T07:51:47.554Z,7.47
2022-11-16T07:54:40.035Z,7.49
2022-11-16T07:57:12.282Z,7.54
2022-11-16T07:59:45.225Z,7.51
2022-11-16T08:02:17.097Z,7.57
2022-11-16T08:04:49.284Z,7.62
2022-11-16T08:07:21.044Z,7.65
2022-11-16T08:09:57.101Z,7.72
2022-11-16T08:12:28.946Z,7.64
2022-11-16T08:15:01.589Z,7.66
2022-11-16T08:17:33.344Z,7.72
2022-11-16T08:20:05.424Z,7.72
2022-11-16T08:22:37.126Z,7.67
2022-11-16T08:25:10.266Z,7.67
2022-11-16T08:27:47.779Z,7.64
2022-11-16T08:30:22.955Z,7.57
2022-11-16T08:32:54.710Z,7.58
2022-11-16T08:35:26.388Z,7.58
2022-11-16T08:37:58.390Z,7.57
2022-11-16T08:40:30.929Z,7.52
2022-11-16T08:43:02.580Z,7.47
2022-11-16T08:45:35.027Z,7.41
2022-11-16T08:48:07.418Z,7.39
2022-11-16T08:51:10.009Z,7.42
2022-11-16T08:53:31.864Z,7.54
2022-11-16T08:56:11.674Z,7.51
2022-11-16T08:58:46.982Z,7.46
2022-11-16T09:01:22.941Z,7.34
2022-11-16T09:03:54.920Z,7.41
2022-11-16T09:06:28.337Z,7.36
2022-11-16T09:09:01.013Z,7.28
2022-11-16T09:11:33.062Z,7.34
2022-11-16T09:14:04.914Z,7.45
2022-11-16T09:16:36.672Z,7.45
2022-11-16T09:19:09.088Z,7.52
2022-11-16T09:21:40.777Z,7.59
2022-11-16T09:24:17.927Z,7.57
2022-11-16T09:26:49.617Z,7.54
2022-11-16T09:29:21.297Z,7.50
2022-11-16T09:31:52.955Z,7.47
2022-11-16T09:34:25.015Z,7.56
2022-11-16T09:36:56.894Z,7.54
2022-11-16T09:39:32.247Z,7.52
2022-11-16T09:42:16.613Z,7.51
2022-11-16T09:45:06.217Z,7.54
2022-11-16T09:47:51.876Z,7.47
2022-11-16T09:50:32.305Z,7.52
2022-11-16T09:53:13.719Z,7.61
2022-11-16T09:55:52.055Z,7.67
2022-11-16T09:58:30.505Z,7.74
2022-11-16T10:01:08.871Z,7.80
2022-11-16T10:03:45.283Z,7.83
2022-11-16T10:06:23.629Z,7.68
2022-11-16T10:08:57.624Z,7.70
2022-11-16T10:11:44.568Z,7.68
2022-11-16T10:14:35.673Z,7.67
2022-11-16T10:17:14.285Z,7.67
2022-11-16T10:19:54.135Z,7.74
2022-11-16T10:22:42.427Z,7.82
2022-11-16T10:25:20.460Z,7.70
2022-11-16T10:28:22.352Z,7.73
2022-11-16T10:31:04.040Z,7.68
2022-11-16T10:33:39.342Z,7.68
2022-11-16T10:36:15.966Z,7.59
2022-11-16T10:38:48.148Z,7.62
2022-11-16T10:41:25.941Z,7.73
2022-11-16T10:44:00.377Z,7.70
2022-11-16T10:46:36.596Z,7.67
2022-11-16T10:49:17.433Z,7.65
2022-11-16T10:51:49.051Z,7.62
2022-11-16T10:54:21.112Z,7.71
2022-11-16T10:57:03.413Z,7.75
2022-11-16T10:59:43.649Z,7.85
2022-11-16T11:02:34.697Z,7.80
2022-11-16T11:05:20.264Z,7.78
2022-11-16T11:08:01.705Z,7.81
2022-11-16T11:10:35.863Z,7.75
2022-11-16T11:13:23.883Z,7.77
2022-11-16T11:16:16.746Z,7.82
2022-11-16T11:18:48.466Z,7.73
2022-11-16T11:21:25.607Z,7.73
2022-11-16T11:24:16.129Z,7.69
2022-11-16T11:26:55.625Z,7.58
2022-11-16T11:29:31.194Z,7.59
2022-11-16T11:32:07.727Z,7.56
2022-11-16T11:34:45.326Z,7.58
2022-11-16T11:37:20.273Z,7.58
2022-11-16T11:40:08.336Z,7.56
2022-11-16T11:42:44.102Z,7.66
2022-11-16T11:45:18.802Z,7.65
2022-11-16T11:47:59.421Z,7.71
2022-11-16T11:50:42.331Z,7.70
2022-11-16T11:53:31.460Z,7.69
2022-11-16T11:56:03.494Z,7.56
2022-11-16T11:58:40.148Z,7.49
2022-11-16T12:01:55.101Z,7.53
2022-11-16T12:05:09.067Z,7.42
2022-11-16T12:07:56.891Z,7.50
2022-11-16T12:10:39.168Z,7.52
2022-11-16T12:13:32.457Z,7.39
2022-11-16T12:16:15.143Z,7.41
2022-11-16T12:19:01.726Z,7.36
2022-11-16T12:21:45.715Z,7.45
2022-11-16T12:24:36.467Z,7.57
2022-11-16T12:27:17.816Z,7.57
2022-11-16T12:30:01.052Z,7.50
2022-11-16T12:32:53.007Z,7.63
2022-11-16T12:35:40.089Z,7.54
2022-11-16T12:38:35.036Z,7.61
2022-11-16T12:41:26.629Z,7.67
2022-11-16T12:44:00.894Z,7.61
2022-11-16T12:46:44.660Z,7.60
2022-11-16T12:49:49.946Z,7.53
2022-11-16T12:52:42.025Z,7.54
2022-11-16T12:55:32.289Z,7.65
2022-11-16T12:58:20.388Z,7.55
2022-11-16T13:01:04.558Z,7.53
2022-11-16T13:03:45.260Z,7.62
2022-11-16T13:06:20.986Z,7.59
2022-11-16T13:09:04.287Z,7.59
2022-11-16T13:11:39.682Z,7.58
2022-11-16T13:14:18.340Z,7.61
2022-11-16T13:16:51.354Z,7.59
2022-11-16T13:19:23.620Z,7.55
2022-11-16T13:22:03.179Z,7.59
2022-11-16T13:24:49.372Z,7.65
2022-11-16T13:27:37.234Z,7.58
2022-11-16T13:30:19.211Z,7.41
2022-11-16T13:33:08.504Z,7.41
2022-11-16T13:35:40.841Z,7.28
2022-11-16T13:38:14.306Z,7.30
2022-11-16T13:40:46.157Z,7.33
2022-11-16T13:43:22.592Z,7.34
2022-11-16T13:45:58.270Z,7.29
2022-11-16T13:48:34.622Z,7.23
2022-11-16T13:51:10.380Z,7.27
2022-11-16T13:54:43.491Z,7.37
2022-11-16T13:56:52.502Z,7.39
2022-11-16T13:59:30.568Z,7.33
2022-11-16T14:02:05.186Z,7.42
2022-11-16T14:04:55.101Z,7.43
2022-11-16T14:07:43.234Z,7.42
2022-11-16T14:11:06.853Z,7.47
2022-11-16T14:13:45.611Z,7.42
2022-11-16T14:16:48.306Z,7.37
2022-11-16T14:19:55.554Z,7.45
2022-11-16T14:22:59.252Z,7.48
2022-11-16T14:25:41.220Z,7.45
2022-11-16T14:28:24.260Z,7.42
2022-11-16T14:31:01.345Z,7.33
2022-11-16T14:33:37.223Z,7.30
2022-11-16T14:36:11.464Z,7.38
2022-11-16T14:38:44.772Z,7.27
2022-11-16T14:41:24.137Z,7.29
2022-11-16T14:43:58.568Z,7.41
2022-11-16T14:46:34.956Z,7.36
2022-11-16T14:49:13.533Z,7.34
2022-11-16T14:51:48.594Z,7.28
2022-11-16T14:54:29.647Z,7.29
2022-11-16T14:57:04.124Z,7.28
2022-11-16T14:59:36.156Z,7.24
2022-11-16T15:02:26.709Z,7.25
2022-11-16T15:04:59.617Z,7.32
2022-11-16T15:07:32.584Z,7.28
2022-11-16T15:10:04.537Z,7.31
2022-11-16T15:12:42.969Z,7.31
2022-11-16T15:15:19.229Z,7.24
2022-11-16T15:18:09.021Z,7.15
2022-11-16T15:20:51.203Z,7.20
2022-11-16T15:23:27.656Z,7.10
2022-11-16T15:26:03.715Z,7.09
2022-11-16T15:28:35.806Z,7.02
2022-11-16T15:31:09.518Z,7.00
2022-11-16T15:33:45.068Z,7.01
2022-11-16T15:36:32.367Z,6.97
2022-11-16T15:39:06.751Z,6.80
2022-11-16T15:41:40.629Z,6.89
2022-11-16T15:44:16.605Z,6.96
2022-11-16T15:46:52.758Z,7.03
2022-11-16T15:49:31.399Z,6.90
2022-11-16T15:52:03.809Z,6.74
2022-11-16T15:55:01.174Z,6.71
2022-11-16T15:57:33.053Z,6.73
2022-11-16T16:00:05.610Z,6.88
2022-11-16T16:02:37.415Z,6.81
2022-11-16T16:05:23.784Z,6.72
2022-11-16T16:07:59.541Z,6.82
2022-11-16T16:10:31.323Z,6.77
2022-11-16T16:13:04.372Z,6.73
2022-11-16T16:15:37.878Z,6.66
2022-11-16T16:18:40.129Z,6.68
2022-11-16T16:21:15.223Z,6.63
2022-11-16T16:23:53.590Z,6.51
2022-11-16T16:26:25.697Z,6.65
2022-11-16T16:28:58.605Z,6.72
2022-11-16T16:31:30.555Z,6.59
2022-11-16T16:34:12.933Z,6.64
2022-11-16T16:36:44.615Z,6.61
2022-11-16T16:39:16.326Z,6.61
2022-11-16T16:41:48.395Z,6.59
2022-11-16T16:44:20.435Z,6.57
2022-11-16T16:46:53.302Z,6.60
2022-11-16T16:49:25.046Z,6.56
2022-11-16T16:51:56.774Z,6.60
2022-11-16T16:54:29.430Z,6.57
2022-11-16T16:57:01.393Z,6.40
2022-11-16T16:59:33.183Z,6.34
2022-11-16T17:02:06.540Z,6.43
2022-11-16T17:04:38.330Z,6.47
2022-11-16T17:07:09.973Z,6.41
2022-11-16T17:09:42.177Z,6.19
2022-11-16T17:12:13.859Z,6.20
2022-11-16T17:14:51.302Z,6.32
2022-11-16T17:17:24.315Z,6.33
2022-11-16T17:19:59.525Z,6.25
2022-11-16T17:22:33.969Z,6.25
2022-11-16T17:25:06.188Z,6.19
2022-11-16T17:27:37.983Z,5.99
2022-11-16T17:30:12.514Z,5.97
2022-11-16T17:32:44.521Z,5.98
2022-11-16T17:35:16.940Z,6.08
2022-11-16T17:37:48.588Z,6.11
2022-11-16T17:40:22.222Z,6.19
2022-11-16T17:42:54.313Z,6.24
2022-11-16T17:45:26.064Z,6.16
2022-11-16T17:47:57.747Z,6.20
2022-11-16T17:50:29.709Z,6.29
2022-11-16T17:53:01.769Z,6.23
2022-11-16T17:55:33.769Z,6.11
2022-11-16T17:58:05.483Z,6.05
2022-11-16T18:00:37.571Z,5.95
2022-11-16T18:03:09.424Z,6.08
2022-11-16T18:05:41.274Z,6.14
2022-11-16T18:08:16.754Z,5.94
2022-11-16T18:10:48.764Z,5.89
2022-11-16T18:13:20.465Z,5.89
2022-11-16T18:15:52.459Z,5.82
2022-11-16T18:18:25.602Z,5.95
2022-11-16T18:20:58.372Z,5.95
2022-11-16T18:23:30.872Z,6.02
2022-11-16T18:26:03.556Z,5.98
2022-11-16T18:28:36.396Z,5.95
2022-11-16T18:31:07.752Z,5.91
2022-11-16T18:33:40.416Z,5.86
2022-11-16T18:36:13.814Z,5.75
2022-11-16T18:38:45.691Z,5.63
2022-11-16T18:41:21.008Z,5.60
2022-11-16T18:43:55.045Z,5.61
2022-11-16T18:46:28.010Z,5.44
2022-11-16T18:49:00.369Z,5.51
2022-11-16T18:51:32.145Z,5.63
2022-11-16T18:54:04.041Z,5.62
2022-11-16T18:56:36.273Z,5.59
2022-11-16T18:59:08.876Z,5.38
2022-11-16T19:01:41.378Z,5.36
2022-11-16T19:04:15.576Z,5.30
2022-11-16T19:06:48.421Z,5.27
2022-11-16T19:09:20.951Z,5.26
2022-11-16T19:11:53.049Z,5.44
2022-11-16T19:14:25.150Z,5.42
2022-11-16T19:16:57.481Z,5.34
2022-11-16T19:19:29.910Z,5.11
2022-11-16T19:22:01.722Z,5.25
2022-11-16T19:24:34.017Z,5.17
2022-11-16T19:27:04.877Z,4.92
2022-11-16T19:29:37.774Z,4.98
2022-11-16T19:32:09.777Z,5.08
2022-11-16T19:34:41.504Z,5.07
2022-11-16T19:37:14.026Z,5.05
2022-11-16T19:39:46.336Z,5.01
2022-11-16T19:42:18.506Z,5.03
2022-11-16T19:44:50.741Z,4.96
2022-11-16T19:47:26.351Z,4.97
2022-11-16T19:49:59.386Z,5.00
2022-11-16T19:52:30.068Z,5.00
2022-11-16T19:55:02.265Z,5.12
2022-11-16T19:57:34.431Z,5.06
2022-11-16T20:00:09.261Z,5.09
2022-11-16T20:02:41.313Z,5.12
2022-11-16T20:05:13.287Z,5.32
2022-11-16T20:07:46.942Z,4.85
2022-11-16T20:10:19.363Z,4.86
2022-11-16T20:12:52.025Z,5.01
2022-11-16T20:15:25.382Z,4.93
2022-11-16T20:17:58.919Z,5.03
2022-11-16T20:20:31.614Z,5.14
2022-11-16T20:23:07.870Z,5.13
2022-11-16T20:25:45.348Z,4.95
2022-11-16T20:28:18.269Z,4.97
2022-11-16T20:30:51.371Z,5.04
2022-11-16T20:33:24.655Z,4.82
2022-11-16T20:36:04.220Z,4.73
2022-11-16T20:38:37.557Z,4.84
2022-11-16T20:41:15.098Z,4.94
2022-11-16T20:43:49.363Z,4.76
2022-11-16T20:46:23.162Z,4.65
2022-11-16T20:48:57.240Z,4.73
2022-11-16T20:51:31.412Z,4.85
2022-11-16T20:54:05.544Z,4.82
2022-11-16T20:56:38.803Z,4.86
2022-11-16T20:59:11.107Z,4.94
2022-11-16T21:01:47.780Z,4.97
2022-11-16T21:04:21.691Z,4.97
2022-11-16T21:06:55.689Z,5.02
2022-11-16T21:09:28.181Z,4.96
2022-11-16T21:12:18.449Z,4.97
2022-11-16T21:14:53.231Z,4.92
2022-11-16T21:17:25.766Z,4.99
2022-11-16T21:20:25.355Z,5.02
2022-11-16T21:22:50.825Z,4.85
2022-11-16T21:25:23.273Z,4.95
2022-11-16T21:27:55.392Z,4.94
2022-11-16T21:30:27.406Z,5.01
2022-11-16T21:32:59.121Z,4.89
2022-11-16T21:35:31.266Z,5.04
2022-11-16T21:38:03.795Z,4.99
2022-11-16T21:40:36.227Z,4.97
2022-11-16T21:43:07.869Z,5.00
2022-11-16T21:45:39.956Z,4.95
2022-11-16T21:48:12.213Z,5.05
2022-11-16T21:50:45.278Z,5.14
2022-11-16T21:53:17.104Z,5.12
2022-11-16T21:55:52.532Z,5.12
2022-11-16T21:58:24.311Z,5.16
2022-11-16T22:01:00.378Z,5.04
2022-11-16T22:03:35.834Z,5.12
2022-11-16T22:06:31.251Z,5.09
2022-11-16T22:09:04.788Z,5.07
2022-11-16T22:11:36.891Z,5.06
2022-11-16T22:14:09.463Z,5.15
2022-11-16T22:16:40.506Z,5.24
2022-11-16T22:19:12.861Z,5.23
2022-11-16T22:21:45.823Z,5.27
2022-11-16T22:24:18.370Z,5.10
2022-11-16T22:26:50.749Z,5.09
2022-11-16T22:29:22.725Z,5.06
2022-11-16T22:31:55.123Z,5.08
2022-11-16T22:34:27.595Z,5.14
2022-11-16T22:36:59.491Z,5.18
2022-11-16T22:39:31.874Z,5.09
2022-11-16T22:42:04.681Z,5.05
2022-11-16T22:44:36.791Z,5.22
2022-11-16T22:47:10.139Z,5.15
2022-11-16T22:49:42.111Z,5.14
2022-11-16T22:52:14.729Z,5.16
2022-11-16T22:54:47.101Z,5.16
2022-11-16T22:57:20.004Z,5.22
2022-11-16T22:59:52.134Z,5.11
2022-11-16T23:02:25.008Z,5.09
2022-11-16T23:04:58.286Z,5.11
2022-11-16T23:07:30.581Z,5.19
2022-11-16T23:10:03.631Z,5.19
2022-11-16T23:12:52.938Z,4.93
2022-11-16T23:15:48.521Z,5.13
2022-11-16T23:18:21.107Z,5.17
2022-11-16T23:21:09.098Z,5.20
2022-11-16T23:23:58.517Z,5.19
2022-11-16T23:27:03.122Z,5.18
2022-11-16T23:29:34.988Z,5.22
2022-11-16T23:32:08.206Z,5.21
2022-11-16T23:34:40.794Z,5.12
2022-11-16T23:37:13.406Z,5.21
2022-11-16T23:39:46.503Z,5.11
2022-11-16T23:42:32.572Z,5.10
2022-11-16T23:45:04.780Z,5.25
2022-11-16T23:47:37.663Z,5.28
2022-11-16T23:50:10.357Z,5.14
2022-11-16T23:52:40.541Z,5.13
2022-11-16T23:55:12.906Z,5.15
2022-11-16T23:57:44.625Z,5.32
